Time;durP1;ratioP1;P1;durP2;ratioP2;P2;SDS_P1;SDS_P2;PMS_P1;PMS_P2;Temp;Humidity;BMP_temperature;BMP_pressure;BME280_temperature;BME280_humidity;BME280_pressure;Samples;Min_cycle;Max_cycle;Signal;HPM_P1;HPM_P2
2022/08/21 00:00:52;;;;;;;12.23;6.25;;;16.40;99.90;;;;;;5101120;28;20095;-52
2022/08/21 00:03:18;;;;;;;12.25;5.15;;;16.40;99.90;;;;;;5100358;28;20036;-52
2022/08/21 00:05:49;;;;;;;10.70;5.03;;;16.40;99.90;;;;;;5101306;28;20466;-53
2022/08/21 00:08:19;;;;;;;10.40;5.00;;;16.40;99.90;;;;;;5099946;28;20050;-53
2022/08/21 00:10:46;;;;;;;11.13;5.07;;;16.30;99.90;;;;;;5100828;28;20044;-53
2022/08/21 00:13:12;;;;;;;10.50;4.55;;;16.30;99.90;;;;;;5099967;28;20040;-52
2022/08/21 00:15:40;;;;;;;12.20;5.53;;;16.30;99.90;;;;;;5099284;28;20488;-52
2022/08/21 00:18:10;;;;;;;10.07;5.15;;;16.30;99.90;;;;;;5100825;28;20103;-51
2022/08/21 00:20:37;;;;;;;9.85;4.90;;;16.40;99.90;;;;;;5099899;28;20047;-51
2022/08/21 00:23:04;;;;;;;17.85;5.53;;;16.20;99.90;;;;;;5100916;28;20043;-53
2022/08/21 00:25:30;;;;;;;9.13;4.68;;;16.20;99.90;;;;;;5099505;28;20044;-52
2022/08/21 00:27:56;;;;;;;9.30;5.00;;;16.20;99.90;;;;;;5100499;28;20040;-51
2022/08/21 00:30:24;;;;;;;12.75;5.28;;;16.20;99.90;;;;;;5100081;28;20055;-53
2022/08/21 00:32:51;;;;;;;8.25;4.70;;;16.20;99.90;;;;;;5100194;28;20044;-53
2022/08/21 00:35:20;;;;;;;10.65;5.40;;;16.20;99.90;;;;;;5100703;28;20450;-53
2022/08/21 00:37:45;;;;;;;10.85;4.88;;;16.20;99.90;;;;;;5099530;28;20051;-52
2022/08/21 00:40:18;;;;;;;9.07;4.55;;;16.20;99.90;;;;;;5100254;28;20040;-53
2022/08/21 00:42:44;;;;;;;9.82;5.30;;;16.20;99.90;;;;;;5099290;28;20040;-52
2022/08/21 00:45:11;;;;;;;12.70;5.45;;;16.20;99.90;;;;;;5100456;28;20709;-55
2022/08/21 00:47:37;;;;;;;10.73;4.85;;;16.20;99.90;;;;;;5099161;28;20040;-51
2022/08/21 00:50:05;;;;;;;10.48;4.80;;;16.20;99.90;;;;;;5099706;28;20617;-52
2022/08/21 00:52:33;;;;;;;11.95;5.32;;;16.10;99.90;;;;;;5100280;28;20079;-52
2022/08/21 00:55:00;;;;;;;10.38;5.15;;;16.20;99.90;;;;;;5097684;28;20044;-57
2022/08/21 00:57:33;;;;;;;13.52;5.82;;;16.10;99.90;;;;;;5100270;28;20047;-53
2022/08/21 01:00:01;;;;;;;12.25;5.38;;;16.00;99.90;;;;;;5098994;28;20036;-52
2022/08/21 01:02:27;;;;;;;11.45;5.40;;;16.10;99.90;;;;;;5098687;28;20479;-52
2022/08/21 01:04:53;;;;;;;10.90;5.00;;;16.00;99.90;;;;;;5099926;28;20071;-50
2022/08/21 01:07:19;;;;;;;10.52;5.32;;;16.00;99.90;;;;;;5099283;28;20476;-51
2022/08/21 01:09:47;;;;;;;11.63;5.38;;;15.90;99.90;;;;;;5099811;28;20411;-52
2022/08/21 01:12:14;;;;;;;10.27;4.88;;;16.00;99.90;;;;;;5098884;28;20044;-52
2022/08/21 01:14:42;;;;;;;11.52;5.63;;;16.10;99.90;;;;;;5099931;28;20044;-53
2022/08/21 01:17:09;;;;;;;11.00;5.30;;;16.00;99.90;;;;;;5098481;28;20069;-51
2022/08/21 01:19:35;;;;;;;10.05;5.25;;;16.00;99.90;;;;;;5099450;28;20055;-52
2022/08/21 01:22:01;;;;;;;13.25;5.53;;;15.90;99.90;;;;;;5099046;28;20040;-51
2022/08/21 01:24:27;;;;;;;12.45;5.30;;;15.90;99.90;;;;;;5099055;28;20036;-52
2022/08/21 01:26:53;;;;;;;10.57;5.05;;;16.00;99.90;;;;;;5099786;28;20554;-50
2022/08/21 01:30:12;;;;;;;8.35;4.75;;;15.90;99.90;;;;;;5098590;28;20040;-53
2022/08/21 01:32:39;;;;;;;10.85;5.88;;;15.90;99.90;;;;;;5086495;28;20056;-51
2022/08/21 01:35:06;;;;;;;11.38;5.38;;;15.90;99.90;;;;;;5099605;28;20072;-52
2022/08/21 01:37:32;;;;;;;11.13;5.43;;;15.80;99.90;;;;;;5097257;28;20040;-52
2022/08/21 01:39:58;;;;;;;10.15;5.60;;;15.70;99.90;;;;;;5099315;28;20036;-53
2022/08/21 01:42:24;;;;;;;11.77;5.32;;;15.80;99.90;;;;;;5098243;28;20039;-53
2022/08/21 01:44:49;;;;;;;9.65;5.97;;;15.80;99.90;;;;;;5099207;28;20040;-52
2022/08/21 01:47:16;;;;;;;8.98;5.28;;;15.80;99.90;;;;;;5098265;28;20040;-53
2022/08/21 01:49:42;;;;;;;10.70;5.43;;;15.80;99.90;;;;;;5098672;28;20086;-52
2022/08/21 01:52:08;;;;;;;10.18;5.35;;;15.70;99.90;;;;;;5098014;28;20453;-52
2022/08/21 01:54:34;;;;;;;9.40;5.32;;;15.70;99.90;;;;;;5097316;28;20409;-52
2022/08/21 01:57:00;;;;;;;13.30;6.28;;;15.70;99.90;;;;;;5099495;28;20028;-52
2022/08/21 01:59:27;;;;;;;9.55;5.53;;;15.60;99.90;;;;;;5097937;28;20058;-53
2022/08/21 02:01:56;;;;;;;16.80;6.45;;;15.60;99.90;;;;;;5103528;28;20051;-52
2022/08/21 02:04:22;;;;;;;10.23;5.60;;;15.60;99.90;;;;;;5102249;28;20032;-51
2022/08/21 02:06:48;;;;;;;10.80;5.38;;;15.60;99.90;;;;;;5103448;28;20051;-51
2022/08/21 02:09:14;;;;;;;12.45;5.95;;;15.60;99.90;;;;;;5102875;28;20099;-51
2022/08/21 02:11:41;;;;;;;14.00;6.35;;;15.60;99.90;;;;;;5102559;28;20044;-51
2022/08/21 02:14:09;;;;;;;10.68;6.15;;;15.50;99.90;;;;;;5101861;28;20044;-49
2022/08/21 02:16:35;;;;;;;9.85;6.00;;;15.50;99.90;;;;;;5102192;28;20051;-52
2022/08/21 02:19:01;;;;;;;12.73;5.90;;;15.60;99.90;;;;;;5103195;28;20037;-53
2022/08/21 02:21:27;;;;;;;11.40;6.03;;;15.50;99.90;;;;;;5101864;28;20551;-53
2022/08/21 02:23:52;;;;;;;10.52;5.57;;;15.50;99.90;;;;;;5103081;28;20036;-52
2022/08/21 02:26:18;;;;;;;12.25;6.07;;;15.50;99.90;;;;;;5102730;28;20044;-53
2022/08/21 02:28:44;;;;;;;11.05;5.95;;;15.60;99.90;;;;;;5102446;28;20040;-53
2022/08/21 02:31:10;;;;;;;11.77;6.25;;;15.60;99.90;;;;;;5084862;28;20131;-50
2022/08/21 02:33:36;;;;;;;10.75;5.88;;;15.50;99.90;;;;;;5100504;28;20047;-52
2022/08/21 02:36:03;;;;;;;13.00;6.15;;;15.50;99.90;;;;;;5101589;28;20040;-52
2022/08/21 02:38:37;;;;;;;10.98;6.50;;;15.50;99.90;;;;;;5083157;28;20052;-50
2022/08/21 02:41:05;;;;;;;9.85;6.05;;;15.50;99.90;;;;;;5102427;28;20040;-52
2022/08/21 02:43:31;;;;;;;10.70;5.88;;;15.40;99.90;;;;;;5102506;28;20096;-49
2022/08/21 02:45:58;;;;;;;10.73;5.53;;;15.40;99.90;;;;;;5102189;28;20055;-50
2022/08/21 02:48:27;;;;;;;12.48;6.63;;;15.50;99.90;;;;;;5102644;28;20036;-49
2022/08/21 02:50:56;;;;;;;11.05;6.13;;;15.50;99.90;;;;;;5101333;28;20052;-53
2022/08/21 02:53:23;;;;;;;9.88;6.45;;;15.40;99.90;;;;;;5102482;28;20134;-53
2022/08/21 02:55:50;;;;;;;12.80;6.88;;;15.30;99.90;;;;;;5101545;28;20052;-52
2022/08/21 02:58:18;;;;;;;12.68;6.78;;;15.30;99.90;;;;;;5102183;28;20052;-52
2022/08/21 03:00:44;;;;;;;12.98;6.78;;;15.30;99.90;;;;;;5102396;28;20101;-52
2022/08/21 03:03:12;;;;;;;13.70;7.18;;;15.30;99.90;;;;;;5101712;28;20067;-52
2022/08/21 03:05:37;;;;;;;12.55;7.25;;;15.30;99.90;;;;;;5102538;28;20062;-51
2022/08/21 03:08:09;;;;;;;13.93;7.00;;;15.30;99.90;;;;;;5101259;28;20036;-52
2022/08/21 03:10:36;;;;;;;15.13;6.90;;;15.20;99.90;;;;;;5101418;28;20059;-53
2022/08/21 03:13:03;;;;;;;12.57;6.78;;;15.20;99.90;;;;;;5101409;28;20052;-52
2022/08/21 03:15:29;;;;;;;11.50;6.80;;;15.20;99.90;;;;;;5101835;28;20055;-53
2022/08/21 03:17:55;;;;;;;13.65;7.75;;;15.30;99.90;;;;;;5101934;28;20047;-50
2022/08/21 03:20:23;;;;;;;13.70;7.80;;;15.20;99.90;;;;;;5101279;28;20479;-53
2022/08/21 03:22:50;;;;;;;13.43;7.28;;;15.20;99.90;;;;;;5102008;28;20036;-49
2022/08/21 03:25:17;;;;;;;13.77;8.05;;;15.20;99.90;;;;;;5100817;28;20070;-53
2022/08/21 03:27:43;;;;;;;14.45;7.90;;;15.10;99.90;;;;;;5100626;28;20084;-53
2022/08/21 03:30:10;;;;;;;14.30;8.07;;;15.20;99.90;;;;;;5101125;28;20051;-50
2022/08/21 03:32:36;;;;;;;15.55;8.25;;;15.10;99.90;;;;;;5100124;28;20080;-53
2022/08/21 03:35:03;;;;;;;15.80;7.40;;;15.10;99.90;;;;;;5101787;28;20040;-53
2022/08/21 03:37:29;;;;;;;12.50;7.90;;;15.10;99.90;;;;;;5100827;28;20044;-52
2022/08/21 03:39:55;;;;;;;10.80;7.05;;;15.10;99.90;;;;;;5101569;28;20042;-53
2022/08/21 03:42:21;;;;;;;14.65;8.30;;;15.10;99.90;;;;;;5100314;28;20047;-52
2022/08/21 03:44:46;;;;;;;14.32;8.10;;;15.00;99.90;;;;;;5101657;28;20040;-51
2022/08/21 03:47:12;;;;;;;12.38;7.35;;;15.10;99.90;;;;;;5100477;28;20073;-51
2022/08/21 03:49:38;;;;;;;14.73;7.80;;;15.10;99.90;;;;;;5101244;28;20185;-54
2022/08/21 03:52:04;;;;;;;13.00;7.65;;;15.00;99.90;;;;;;5101150;28;20056;-52
2022/08/21 03:54:30;;;;;;;12.45;7.75;;;15.00;99.90;;;;;;5100581;28;20109;-50
2022/08/21 03:56:56;;;;;;;13.98;8.05;;;14.90;99.90;;;;;;5101687;28;20051;-53
2022/08/21 03:59:21;;;;;;;13.25;8.80;;;14.90;99.90;;;;;;5100324;28;20036;-52
2022/08/21 04:02:03;;;;;;;14.15;8.25;;;14.90;99.90;;;;;;5099841;28;20051;-52
2022/08/21 04:04:29;;;;;;;13.00;7.97;;;14.90;99.90;;;;;;5100450;28;20047;-53
2022/08/21 04:06:56;;;;;;;15.95;8.48;;;15.00;99.90;;;;;;5100736;28;20048;-51
2022/08/21 04:09:22;;;;;;;10.73;8.30;;;15.00;99.90;;;;;;5100815;28;20127;-55
2022/08/21 04:11:48;;;;;;;15.85;9.05;;;14.90;99.90;;;;;;5100113;28;20503;-53
2022/08/21 04:14:14;;;;;;;17.65;8.45;;;14.90;99.90;;;;;;5100999;28;20062;-54
2022/08/21 04:16:41;;;;;;;11.90;8.07;;;14.90;99.90;;;;;;5099676;28;20044;-52
2022/08/21 04:19:08;;;;;;;14.40;8.63;;;14.80;99.90;;;;;;5080361;28;20044;-52
2022/08/21 04:21:36;;;;;;;14.30;8.30;;;14.80;99.90;;;;;;5079916;28;20071;-53
2022/08/21 04:24:01;;;;;;;11.75;7.55;;;14.80;99.90;;;;;;5079413;28;20816;-53
2022/08/21 04:26:27;;;;;;;16.90;8.43;;;14.90;99.90;;;;;;5080344;28;20037;-52
2022/08/21 04:28:53;;;;;;;14.70;8.90;;;14.90;99.90;;;;;;5079447;28;20511;-53
2022/08/21 04:31:19;;;;;;;18.17;8.65;;;14.90;99.90;;;;;;5080426;28;20044;-53
2022/08/21 04:33:44;;;;;;;11.85;7.90;;;14.70;99.90;;;;;;5079327;28;20052;-51
2022/08/21 04:36:11;;;;;;;14.45;8.00;;;14.90;99.90;;;;;;5080221;28;20059;-53
2022/08/21 04:38:37;;;;;;;10.07;7.78;;;14.80;99.90;;;;;;5089800;28;20055;-53
2022/08/21 04:41:04;;;;;;;17.20;8.23;;;14.90;99.90;;;;;;5100206;28;20036;-53
2022/08/21 04:43:30;;;;;;;14.75;7.93;;;14.90;99.90;;;;;;5100252;28;20048;-52
2022/08/21 04:45:55;;;;;;;14.07;7.70;;;14.80;99.90;;;;;;5099557;28;20055;-53
2022/08/21 04:48:25;;;;;;;11.38;7.50;;;14.90;99.90;;;;;;5100373;28;20044;-50
2022/08/21 04:50:53;;;;;;;12.20;7.75;;;15.00;99.90;;;;;;5099020;28;20052;-53
2022/08/21 04:53:37;;;;;;;14.35;7.68;;;15.00;99.90;;;;;;5100302;28;20035;-52
2022/08/21 04:56:08;;;;;;;11.18;7.75;;;15.10;99.90;;;;;;5099791;28;20074;-53
2022/08/21 04:58:37;;;;;;;15.75;7.25;;;15.10;99.90;;;;;;5098120;28;20051;-52
2022/08/21 05:01:04;;;;;;;14.57;7.68;;;15.10;99.90;;;;;;5100047;28;20621;-53
2022/08/21 05:03:32;;;;;;;12.45;7.50;;;15.10;99.90;;;;;;5099109;28;20040;-53
2022/08/21 05:05:59;;;;;;;13.73;7.10;;;15.20;99.90;;;;;;5099970;28;20399;-55
2022/08/21 05:08:26;;;;;;;14.63;7.43;;;15.30;99.90;;;;;;5098688;28;20078;-53
2022/08/21 05:10:52;;;;;;;14.65;7.38;;;15.30;99.90;;;;;;5099886;28;20047;-51
2022/08/21 05:13:18;;;;;;;11.50;6.88;;;15.30;99.90;;;;;;5099363;28;20051;-51
2022/08/21 05:15:44;;;;;;;14.43;7.25;;;15.40;99.90;;;;;;5099525;28;20051;-52
2022/08/21 05:18:10;;;;;;;14.75;6.85;;;15.40;99.90;;;;;;5099600;28;20048;-51
2022/08/21 05:20:36;;;;;;;14.43;7.18;;;15.40;99.90;;;;;;5098841;28;20052;-52
2022/08/21 05:23:11;;;;;;;11.38;6.55;;;15.50;99.90;;;;;;5099871;28;20029;-52
2022/08/21 05:25:37;;;;;;;11.40;6.78;;;15.50;99.90;;;;;;5093833;28;20105;-52
2022/08/21 05:28:03;;;;;;;11.95;6.78;;;15.60;99.90;;;;;;5096533;28;20032;-52
2022/08/21 05:30:29;;;;;;;14.85;6.88;;;15.60;99.90;;;;;;5095990;28;20070;-52
2022/08/21 05:32:59;;;;;;;12.52;7.03;;;15.70;99.90;;;;;;5095751;28;20052;-50
2022/08/21 05:35:26;;;;;;;12.35;5.95;;;15.70;99.90;;;;;;5096177;28;20044;-52
2022/08/21 05:37:51;;;;;;;11.57;6.00;;;15.80;99.90;;;;;;5095222;28;20040;-51
2022/08/21 05:40:18;;;;;;;13.88;6.63;;;15.90;99.90;;;;;;5096002;28;20104;-52
2022/08/21 05:42:44;;;;;;;13.43;6.68;;;15.90;99.90;;;;;;5095238;28;20080;-52
2022/08/21 05:45:10;;;;;;;12.38;6.70;;;15.90;99.90;;;;;;5094759;28;20040;-53
2022/08/21 05:47:35;;;;;;;13.55;5.38;;;16.00;99.90;;;;;;5095440;28;20036;-53
2022/08/21 05:50:01;;;;;;;14.60;7.50;;;16.10;99.90;;;;;;5094878;28;20079;-52
2022/08/21 05:52:27;;;;;;;14.30;6.82;;;16.20;99.90;;;;;;5094665;28;20081;-52
2022/08/21 05:54:55;;;;;;;15.43;6.22;;;16.30;99.90;;;;;;5094815;28;20036;-52
2022/08/21 05:57:22;;;;;;;10.52;6.22;;;16.30;99.90;;;;;;5094364;28;20622;-53
2022/08/21 05:59:48;;;;;;;14.70;6.57;;;16.40;99.90;;;;;;5079492;28;20055;-51
2022/08/21 06:02:17;;;;;;;12.82;6.28;;;16.40;99.90;;;;;;5086369;28;20127;-52
2022/08/21 06:04:43;;;;;;;16.30;6.00;;;16.50;99.90;;;;;;5084359;28;20399;-52
2022/08/21 06:07:08;;;;;;;15.07;6.55;;;16.60;99.90;;;;;;5084048;28;20043;-53
2022/08/21 06:09:34;;;;;;;15.95;6.78;;;16.60;99.90;;;;;;5085827;28;20051;-52
2022/08/21 06:12:04;;;;;;;12.75;6.65;;;16.70;99.90;;;;;;5087429;28;20052;-53
2022/08/21 06:14:30;;;;;;;14.48;6.55;;;16.70;99.90;;;;;;5095451;28;20891;-52
2022/08/21 06:17:05;;;;;;;12.88;6.68;;;16.80;99.90;;;;;;5092223;28;20122;-53
2022/08/21 06:19:31;;;;;;;12.50;7.05;;;16.80;99.90;;;;;;5083992;28;20052;-52
2022/08/21 06:21:57;;;;;;;12.55;6.78;;;16.90;99.90;;;;;;5084800;28;20059;-53
2022/08/21 06:24:23;;;;;;;15.30;6.45;;;17.00;99.90;;;;;;5087483;28;20048;-53
2022/08/21 06:26:49;;;;;;;14.52;6.38;;;17.10;99.90;;;;;;5096186;28;20346;-51
2022/08/21 06:29:17;;;;;;;13.07;6.18;;;17.10;99.90;;;;;;5093415;28;20049;-52
2022/08/21 06:31:43;;;;;;;12.05;6.05;;;17.20;99.90;;;;;;5094447;28;20048;-52
2022/08/21 06:34:09;;;;;;;15.07;7.03;;;17.20;99.90;;;;;;5094659;28;20373;-54
2022/08/21 06:36:35;;;;;;;12.88;6.75;;;17.30;99.90;;;;;;5093632;28;20473;-51
2022/08/21 06:39:01;;;;;;;12.07;6.15;;;17.30;99.90;;;;;;5095003;28;20070;-51
2022/08/21 06:41:27;;;;;;;12.75;6.38;;;17.40;99.90;;;;;;5095329;28;20130;-53
2022/08/21 06:43:54;;;;;;;13.13;6.57;;;17.50;99.90;;;;;;5095974;28;20135;-52
2022/08/21 06:46:20;;;;;;;13.50;6.32;;;17.60;99.90;;;;;;5096098;28;20048;-53
2022/08/21 06:48:45;;;;;;;10.50;5.68;;;17.50;99.90;;;;;;5099030;28;20051;-53
2022/08/21 06:51:11;;;;;;;12.95;7.15;;;17.60;99.90;;;;;;5096466;28;20051;-53
2022/08/21 06:53:37;;;;;;;16.70;6.93;;;17.60;99.90;;;;;;5099251;28;20052;-52
2022/08/21 06:56:03;;;;;;;13.73;6.25;;;17.70;99.90;;;;;;5098461;28;20036;-51
2022/08/21 06:58:30;;;;;;;13.23;5.85;;;17.80;99.90;;;;;;5098791;28;20763;-52
2022/08/21 07:00:55;;;;;;;11.77;5.45;;;18.00;99.90;;;;;;5099228;28;20439;-53
2022/08/21 07:03:24;;;;;;;12.73;5.60;;;18.00;99.90;;;;;;5097086;28;20063;-52
2022/08/21 07:05:51;;;;;;;12.40;5.10;;;18.10;99.90;;;;;;5080821;28;20133;-53
2022/08/21 07:08:17;;;;;;;13.27;5.28;;;18.30;99.90;;;;;;5088229;28;20131;-54
2022/08/21 07:10:43;;;;;;;13.45;4.43;;;18.40;99.90;;;;;;5093057;28;20050;-49
2022/08/21 07:13:09;;;;;;;11.02;4.78;;;18.40;99.90;;;;;;5096727;28;20059;-48
2022/08/21 07:15:34;;;;;;;12.10;3.63;;;18.50;99.90;;;;;;5097265;28;20040;-51
2022/08/21 07:18:00;;;;;;;10.35;3.42;;;18.50;99.90;;;;;;5087551;28;20105;-50
2022/08/21 07:20:30;;;;;;;13.30;4.10;;;18.60;99.90;;;;;;5079094;28;20054;-51
2022/08/21 07:22:59;;;;;;;9.90;3.60;;;18.70;99.90;;;;;;5081391;28;20052;-51
2022/08/21 07:25:25;;;;;;;8.32;3.10;;;18.80;99.90;;;;;;5080016;28;20036;-51
2022/08/21 07:27:50;;;;;;;8.88;3.50;;;18.90;99.90;;;;;;5081792;28;20538;-52
2022/08/21 07:30:16;;;;;;;11.95;3.22;;;19.00;99.90;;;;;;5080715;28;20087;-49
2022/08/21 07:32:42;;;;;;;11.85;3.80;;;19.10;99.90;;;;;;5080559;28;20123;-51
2022/08/21 07:35:08;;;;;;;8.25;3.20;;;19.00;99.90;;;;;;5081398;28;20047;-49
2022/08/21 07:37:33;;;;;;;9.20;3.42;;;19.10;99.90;;;;;;5083604;28;20088;-49
2022/08/21 07:39:59;;;;;;;11.48;3.55;;;19.20;99.90;;;;;;5101282;28;20048;-52
2022/08/21 07:42:24;;;;;;;11.35;3.47;;;19.30;99.90;;;;;;5100096;28;20051;-50
2022/08/21 07:44:50;;;;;;;10.98;2.90;;;19.20;99.90;;;;;;5101377;28;20043;-51
2022/08/21 07:47:16;;;;;;;8.52;2.92;;;19.30;99.90;;;;;;5100559;28;20059;-49
2022/08/21 07:49:42;;;;;;;11.93;3.55;;;19.50;99.90;;;;;;5100728;28;20411;-52
2022/08/21 07:52:07;;;;;;;12.88;3.40;;;19.50;99.90;;;;;;5101065;28;20048;-49
2022/08/21 07:54:33;;;;;;;8.85;3.20;;;19.60;99.90;;;;;;5100303;28;20063;-50
2022/08/21 07:56:59;;;;;;;12.85;3.13;;;19.60;99.90;;;;;;5101302;28;20095;-49
2022/08/21 07:59:24;;;;;;;10.63;2.55;;;19.70;99.90;;;;;;5099941;28;20451;-49
2022/08/21 08:01:50;;;;;;;10.52;2.78;;;19.60;99.90;;;;;;5100786;28;20155;-50
2022/08/21 08:04:16;;;;;;;6.40;2.83;;;19.80;99.90;;;;;;5099776;28;20032;-49
2022/08/21 08:06:41;;;;;;;11.18;3.55;;;19.80;99.90;;;;;;5089398;28;20036;-49
2022/08/21 08:09:07;;;;;;;11.95;3.35;;;19.90;99.90;;;;;;5091354;28;20037;-50
2022/08/21 08:11:33;;;;;;;9.93;3.10;;;19.90;99.90;;;;;;5090650;28;20036;-49
2022/08/21 08:13:59;;;;;;;9.02;2.95;;;20.10;99.90;;;;;;5089755;28;20048;-52
2022/08/21 08:16:25;;;;;;;14.60;3.25;;;20.10;99.90;;;;;;5089574;28;20048;-49
2022/08/21 08:18:51;;;;;;;11.63;3.28;;;20.10;99.90;;;;;;5088394;28;20040;-53
2022/08/21 08:21:20;;;;;;;16.02;3.40;;;20.20;99.90;;;;;;5088096;28;20071;-54
2022/08/21 08:23:46;;;;;;;13.50;3.38;;;20.20;99.90;;;;;;5099942;28;20048;-51
2022/08/21 08:26:12;;;;;;;11.90;3.13;;;20.30;99.90;;;;;;5100343;28;20075;-49
2022/08/21 08:28:38;;;;;;;11.40;3.25;;;20.40;99.90;;;;;;5099536;28;20028;-51
2022/08/21 08:31:04;;;;;;;12.15;3.22;;;20.20;99.90;;;;;;5100274;28;20105;-49
2022/08/21 08:33:29;;;;;;;14.45;3.97;;;20.30;99.90;;;;;;5098541;28;20044;-50
2022/08/21 08:35:56;;;;;;;11.43;3.15;;;20.20;99.90;;;;;;5096147;28;20044;-52
2022/08/21 08:38:24;;;;;;;13.10;3.72;;;20.20;99.90;;;;;;5096032;28;20393;-49
2022/08/21 08:41:02;;;;;;;12.73;3.72;;;20.40;99.90;;;;;;5096863;28;20040;-49
2022/08/21 08:43:31;;;;;;;14.00;3.90;;;20.50;99.90;;;;;;5096985;28;20048;-48
2022/08/21 08:46:01;;;;;;;15.93;3.90;;;20.40;99.90;;;;;;5096221;28;20044;-50
2022/08/21 08:48:56;;;;;;;15.63;3.72;;;20.50;99.90;;;;;;5096555;28;20047;-51
2022/08/21 08:51:54;;;;;;;11.68;4.18;;;20.50;99.90;;;;;;5095907;28;20067;-49
2022/08/21 08:54:31;;;;;;;13.10;3.55;;;20.40;99.90;;;;;;5078603;28;20060;-50
2022/08/21 08:57:02;;;;;;;10.95;4.20;;;20.60;99.90;;;;;;5097025;28;20044;-49
2022/08/21 08:59:41;;;;;;;16.40;4.28;;;20.70;99.90;;;;;;5095300;28;20052;-50
2022/08/21 09:02:10;;;;;;;12.02;3.90;;;20.80;99.90;;;;;;5096524;28;20055;-48
2022/08/21 09:04:36;;;;;;;13.05;3.92;;;21.00;99.90;;;;;;5096324;28;20055;-49
2022/08/21 09:07:20;;;;;;;14.05;3.50;;;21.20;99.90;;;;;;5095173;28;20056;-49
2022/08/21 09:10:17;;;;;;;12.60;3.90;;;21.50;99.90;;;;;;5096043;28;20833;-50
2022/08/21 09:12:59;;;;;;;11.52;3.75;;;21.50;99.90;;;;;;5095042;28;20054;-49
2022/08/21 09:15:55;;;;;;;9.73;3.47;;;21.50;99.90;;;;;;5096342;28;20050;-50
2022/08/21 09:18:43;;;;;;;14.13;4.65;;;21.70;99.90;;;;;;5096141;28;20048;-49
2022/08/21 09:21:09;;;;;;;10.52;3.38;;;21.60;99.90;;;;;;5094913;28;20048;-49
2022/08/21 09:23:56;;;;;;;11.57;3.60;;;21.30;99.90;;;;;;5095974;28;20052;-52
2022/08/21 09:26:30;;;;;;;13.63;3.25;;;21.30;99.90;;;;;;5096389;28;20046;-48
2022/08/21 09:29:00;;;;;;;12.15;3.20;;;21.10;99.90;;;;;;5095330;28;20032;-50
2022/08/21 09:31:37;;;;;;;12.45;3.20;;;21.10;99.90;;;;;;5096103;28;20061;-49
2022/08/21 09:34:08;;;;;;;15.98;3.17;;;21.30;99.90;;;;;;5094663;28;20069;-49
2022/08/21 09:36:43;;;;;;;11.40;3.85;;;21.50;99.90;;;;;;5095444;28;20073;-50
2022/08/21 09:39:12;;;;;;;11.52;3.30;;;21.30;99.90;;;;;;5093150;28;20085;-52
2022/08/21 09:41:39;;;;;;;12.18;2.95;;;21.30;99.90;;;;;;5093812;28;20109;-49
2022/08/21 09:44:07;;;;;;;11.70;2.72;;;21.50;99.90;;;;;;5096209;28;20444;-50
2022/08/21 09:46:32;;;;;;;10.30;2.78;;;21.60;99.90;;;;;;5095047;28;20086;-49
2022/08/21 09:49:03;;;;;;;11.90;3.85;;;21.90;99.90;;;;;;5095725;28;20048;-52
2022/08/21 09:51:35;;;;;;;10.70;2.55;;;21.70;99.90;;;;;;5095104;28;20052;-49
2022/08/21 09:54:07;;;;;;;10.88;2.60;;;22.00;99.90;;;;;;5095475;28;20119;-49
2022/08/21 09:57:45;;;;;;;9.20;2.60;;;22.20;99.90;;;;;;5095776;28;20056;-48
2022/08/21 10:00:29;;;;;;;10.23;2.60;;;22.10;99.90;;;;;;5094742;28;20625;-50
2022/08/21 10:03:11;;;;;;;9.25;2.33;;;21.90;99.90;;;;;;5094998;28;20052;-50
2022/08/21 10:05:38;;;;;;;;;;;21.90;99.90;;;;;;5096237;28;20067;-52
2022/08/21 10:08:05;;;;;;;12.85;3.05;;;22.20;99.90;;;;;;5094614;28;20388;-51
2022/08/21 10:10:36;;;;;;;9.13;2.60;;;22.30;99.90;;;;;;5095471;28;20058;-52
2022/08/21 10:13:20;;;;;;;11.63;2.90;;;22.30;99.90;;;;;;5094624;28;20074;-50
2022/08/21 10:16:27;;;;;;;9.70;2.42;;;22.00;99.90;;;;;;5094992;28;20052;-50
2022/08/21 10:18:55;;;;;;;11.85;2.92;;;22.10;99.90;;;;;;5072450;28;20063;-51
2022/08/21 10:21:43;;;;;;;11.93;3.03;;;22.30;99.90;;;;;;5076143;28;20112;-49
2022/08/21 10:24:36;;;;;;;9.45;2.55;;;22.30;99.90;;;;;;5078693;28;20056;-48
2022/08/21 10:27:16;;;;;;;10.30;2.90;;;22.10;99.90;;;;;;5090504;28;20040;-50
2022/08/21 10:30:01;;;;;;;10.73;3.20;;;22.30;99.90;;;;;;5087579;28;20049;-51
2022/08/21 10:32:48;;;;;;;13.45;2.88;;;22.50;99.90;;;;;;5087437;28;20104;-49
2022/08/21 10:35:21;;;;;;;10.05;2.78;;;22.30;99.90;;;;;;5091293;28;20064;-52
2022/08/21 10:38:14;;;;;;;9.32;2.50;;;22.10;99.90;;;;;;5098337;28;20103;-51
2022/08/21 10:41:10;;;;;;;10.65;3.55;;;21.80;99.90;;;;;;5099263;28;20044;-51
2022/08/21 10:44:18;;;;;;;8.82;2.05;;;22.00;99.90;;;;;;5098645;28;20919;-52
2022/08/21 10:47:18;;;;;;;8.98;2.42;;;22.20;99.90;;;;;;5085863;28;20096;-49
2022/08/21 10:50:08;;;;;;;13.35;3.25;;;22.40;99.90;;;;;;5082053;28;20326;-50
2022/08/21 10:52:52;;;;;;;10.60;2.88;;;22.60;99.90;;;;;;5088362;28;20059;-50
2022/08/21 10:55:22;;;;;;;10.75;3.25;;;22.80;99.90;;;;;;5088042;28;20100;-52
2022/08/21 10:58:09;;;;;;;10.95;2.65;;;22.90;99.90;;;;;;5087780;28;20114;-52
2022/08/21 11:00:47;;;;;;;10.00;2.53;;;23.30;99.90;;;;;;5088485;28;20060;-50
2022/08/21 11:03:30;;;;;;;10.65;2.20;;;23.50;99.90;;;;;;5085130;28;20504;-50
2022/08/21 11:06:10;;;;;;;11.40;2.90;;;23.50;99.90;;;;;;5088598;28;20057;-51
2022/08/21 11:08:43;;;;;;;10.18;2.95;;;23.60;99.90;;;;;;5086785;28;20070;-52
2022/08/21 11:11:22;;;;;;;9.60;2.60;;;23.60;99.90;;;;;;5086293;28;20079;-50
2022/08/21 11:13:54;;;;;;;7.47;2.22;;;23.70;99.90;;;;;;5086637;28;20137;-49
2022/08/21 11:16:39;;;;;;;9.10;2.22;;;23.80;99.90;;;;;;5077263;28;20049;-52
2022/08/21 11:19:30;;;;;;;11.00;2.60;;;23.60;99.90;;;;;;5098395;28;20101;-51
2022/08/21 11:22:23;;;;;;;10.23;2.47;;;23.40;99.90;;;;;;5098011;28;20054;-48
2022/08/21 11:25:24;;;;;;;8.95;2.25;;;23.20;99.90;;;;;;5097153;28;20054;-49
2022/08/21 11:27:55;;;;;;;7.40;1.98;;;23.40;99.90;;;;;;5097694;28;20090;-52
2022/08/21 11:30:27;;;;;;;9.05;2.10;;;23.30;99.90;;;;;;5098080;28;20048;-51
2022/08/21 11:33:17;;;;;;;10.85;2.33;;;23.30;99.90;;;;;;5097184;28;20048;-49
2022/08/21 11:35:47;;;;;;;8.00;1.88;;;23.70;99.90;;;;;;5098318;28;20044;-49
2022/08/21 11:38:39;;;;;;;7.97;1.90;;;23.60;99.90;;;;;;5097140;28;20032;-51
2022/08/21 11:42:00;;;;;;;8.57;2.05;;;23.70;99.90;;;;;;5097875;28;20040;-50
2022/08/21 11:45:01;;;;;;;9.75;1.90;;;23.30;99.90;;;;;;5038556;28;20132;-49
2022/08/21 11:47:57;;;;;;;7.28;2.03;;;23.00;99.90;;;;;;5054248;28;20041;-51
2022/08/21 11:50:30;;;;;;;10.05;2.25;;;22.70;99.90;;;;;;5092961;28;20056;-49
2022/08/21 11:53:08;;;;;;;9.80;2.15;;;22.60;99.90;;;;;;5097994;28;20059;-49
2022/08/21 11:55:44;;;;;;;8.77;2.10;;;23.00;99.90;;;;;;5097253;28;20091;-49
2022/08/21 11:58:45;;;;;;;8.90;2.15;;;23.00;99.90;;;;;;5096060;28;20094;-52
2022/08/21 12:01:44;;;;;;;6.85;2.10;;;23.10;99.90;;;;;;5096403;28;20048;-48
2022/08/21 12:04:32;;;;;;;5.85;1.92;;;23.40;99.90;;;;;;5088351;28;20056;-48
2022/08/21 12:07:28;;;;;;;6.93;1.80;;;23.50;99.90;;;;;;5097325;28;20640;-50
2022/08/21 12:09:56;;;;;;;8.48;2.00;;;23.80;99.90;;;;;;5097629;28;20048;-48
2022/08/21 12:12:28;;;;;;;7.63;2.03;;;24.00;99.90;;;;;;5096162;28;20123;-51
2022/08/21 12:15:13;;;;;;;6.20;1.42;;;24.30;99.90;;;;;;5097577;28;20047;-52
2022/08/21 12:17:50;;;;;;;7.38;1.85;;;24.30;99.90;;;;;;5097398;28;20422;-47
2022/08/21 12:20:43;;;;;;;6.20;1.90;;;24.50;99.90;;;;;;5096429;28;20081;-48
2022/08/21 12:23:09;;;;;;;8.93;2.22;;;24.20;99.90;;;;;;5097318;28;20154;-47
2022/08/21 12:25:43;;;;;;;7.07;1.58;;;24.20;99.90;;;;;;5096619;28;20036;-47
2022/08/21 12:28:15;;;;;;;7.70;1.55;;;24.60;99.90;;;;;;5097248;28;20069;-50
2022/08/21 12:30:44;;;;;;;7.78;1.77;;;24.70;99.90;;;;;;5096174;28;20747;-50
2022/08/21 12:33:37;;;;;;;5.35;1.42;;;24.70;99.90;;;;;;5096376;28;20048;-47
2022/08/21 12:36:21;;;;;;;7.85;1.85;;;24.30;99.90;;;;;;5097152;28;20120;-52
2022/08/21 12:38:51;;;;;;;8.15;2.15;;;24.00;99.90;;;;;;5096392;28;20048;-49
2022/08/21 12:41:26;;;;;;;8.45;1.88;;;23.80;99.90;;;;;;5096718;28;20483;-51
2022/08/21 12:43:58;;;;;;;8.32;1.92;;;23.80;99.90;;;;;;5096521;28;20039;-49
2022/08/21 12:47:10;;;;;;;9.80;2.58;;;23.80;99.90;;;;;;5095936;28;20040;-51
2022/08/21 12:49:43;;;;;;;8.40;1.70;;;23.50;99.90;;;;;;5053474;28;20072;-49
2022/08/21 12:52:20;;;;;;;8.40;1.92;;;23.20;99.90;;;;;;5090001;28;20055;-49
2022/08/21 12:54:46;;;;;;;8.10;2.08;;;23.20;99.90;;;;;;5095955;28;20213;-49
2022/08/21 12:57:28;;;;;;;7.93;1.90;;;23.50;99.90;;;;;;5095761;28;20047;-50
2022/08/21 12:59:55;;;;;;;;;;;23.50;99.90;;;;;;5094552;28;20044;-50
2022/08/21 13:02:25;;;;;;;8.23;1.95;;;23.30;99.90;;;;;;5096479;28;19923;-51